createdAt,value
2022-10-21T00:00:11.142Z,12.23
2022-10-21T00:02:59.735Z,10.80
2022-10-21T00:05:46.309Z,10.70
2022-10-21T00:08:32.522Z,11.65
2022-10-21T00:11:18.933Z,15.32
2022-10-21T00:14:05.309Z,10.32
2022-10-21T00:16:51.741Z,11.15
2022-10-21T00:19:40.021Z,10.75
2022-10-21T00:22:25.989Z,11.02
2022-10-21T00:25:12.121Z,13.93
2022-10-21T00:27:58.132Z,10.02
2022-10-21T00:30:45.532Z,16.10
2022-10-21T00:33:31.643Z,16.02
2022-10-21T00:36:18.136Z,13.45
2022-10-21T00:39:04.285Z,11.30
2022-10-21T00:41:50.523Z,10.10
2022-10-21T00:44:37.652Z,13.40
2022-10-21T00:47:23.783Z,12.43
2022-10-21T00:50:19.236Z,12.85
2022-10-21T00:53:07.371Z,12.18
2022-10-21T00:55:56.536Z,11.23
2022-10-21T00:58:42.433Z,10.10
2022-10-21T01:01:28.557Z,12.93
2022-10-21T01:04:14.524Z,12.65
2022-10-21T01:07:00.933Z,11.10
2022-10-21T01:09:46.965Z,10.10
2022-10-21T01:12:44.442Z,10.88
2022-10-21T01:15:39.568Z,10.25
2022-10-21T01:18:39.943Z,10.05
2022-10-21T01:22:03.104Z,9.07
2022-10-21T01:24:55.249Z,10.30
2022-10-21T01:27:52.181Z,9.80
2022-10-21T01:31:22.721Z,11.32
2022-10-21T01:34:21.046Z,17.23
2022-10-21T01:37:23.909Z,13.38
2022-10-21T01:40:16.966Z,9.85
2022-10-21T01:43:17.116Z,9.50
2022-10-21T01:46:19.543Z,11.85
2022-10-21T01:49:14.084Z,14.35
2022-10-21T01:52:01.108Z,12.07
2022-10-21T01:54:52.412Z,10.60
2022-10-21T01:57:41.658Z,10.70
2022-10-21T02:00:27.644Z,11.07
2022-10-21T02:03:19.561Z,9.50
2022-10-21T02:06:05.540Z,10.63
2022-10-21T02:08:51.696Z,8.25
2022-10-21T02:11:39.272Z,11.82
2022-10-21T02:14:31.693Z,9.40
2022-10-21T02:17:19.809Z,11.45
2022-10-21T02:20:09.593Z,9.88
2022-10-21T02:22:55.521Z,9.20
2022-10-21T02:25:42.949Z,9.30
2022-10-21T02:28:29.588Z,9.27
2022-10-21T02:31:21.892Z,9.80
2022-10-21T02:34:16.840Z,11.93
2022-10-21T02:37:24.632Z,11.60
2022-10-21T02:40:16.115Z,11.30
2022-10-21T02:43:09.433Z,9.80
2022-10-21T02:46:02.547Z,9.35
2022-10-21T02:51:34.847Z,12.70
2022-10-21T02:54:20.999Z,10.93
2022-10-21T02:57:06.973Z,8.18
2022-10-21T02:59:53.114Z,10.73
2022-10-21T03:02:39.144Z,14.35
2022-10-21T03:05:25.229Z,11.93
2022-10-21T03:08:11.177Z,14.82
2022-10-21T03:10:57.265Z,10.88
2022-10-21T03:13:43.310Z,12.20
2022-10-21T03:16:29.440Z,9.55
2022-10-21T03:19:15.468Z,9.35
2022-10-21T03:22:01.547Z,8.73
2022-10-21T03:24:47.533Z,9.10
2022-10-21T03:27:33.510Z,10.55
2022-10-21T03:30:19.738Z,9.55
2022-10-21T03:33:05.655Z,12.57
2022-10-21T03:35:51.609Z,9.52
2022-10-21T03:38:37.692Z,14.43
2022-10-21T03:41:23.567Z,14.02
2022-10-21T03:44:09.667Z,11.32
2022-10-21T03:46:55.559Z,9.18
2022-10-21T03:49:41.561Z,11.77
2022-10-21T03:52:27.796Z,12.38
2022-10-21T03:55:13.647Z,12.13
2022-10-21T03:57:59.678Z,12.18
2022-10-21T04:00:45.710Z,11.23
2022-10-21T04:03:31.753Z,11.93
2022-10-21T04:06:17.871Z,12.48
2022-10-21T04:09:04.100Z,10.40
2022-10-21T04:11:50.202Z,12.55
2022-10-21T04:14:36.403Z,10.20
2022-10-21T04:17:22.386Z,10.00
2022-10-21T04:20:10.455Z,9.98
2022-10-21T04:22:56.476Z,11.93
2022-10-21T04:25:44.283Z,12.00
2022-10-21T04:28:29.985Z,13.30
2022-10-21T04:31:15.995Z,16.33
2022-10-21T04:34:02.022Z,10.13
2022-10-21T04:36:48.054Z,11.52
2022-10-21T04:39:34.222Z,15.27
2022-10-21T04:42:20.159Z,19.23
2022-10-21T04:45:06.693Z,21.77
2022-10-21T04:47:52.843Z,18.08
2022-10-21T04:50:39.044Z,17.25
2022-10-21T04:53:25.308Z,16.27
2022-10-21T04:56:11.543Z,12.15
2022-10-21T04:58:57.264Z,19.70
2022-10-21T05:01:43.343Z,11.82
2022-10-21T05:04:29.147Z,13.63
2022-10-21T05:07:15.134Z,18.23
2022-10-21T05:10:01.154Z,13.82
2022-10-21T05:12:47.214Z,17.27
2022-10-21T05:15:33.663Z,14.60
2022-10-21T05:18:19.509Z,12.88
2022-10-21T05:21:05.601Z,18.98
2022-10-21T05:23:51.874Z,18.13
2022-10-21T05:26:37.671Z,17.00
2022-10-21T05:29:23.670Z,16.05
2022-10-21T05:32:09.812Z,20.85
2022-10-21T05:34:55.775Z,19.70
2022-10-21T05:37:41.762Z,25.73
2022-10-21T05:40:27.806Z,21.55
2022-10-21T05:43:14.122Z,20.75
2022-10-21T05:46:00.106Z,17.95
2022-10-21T05:48:45.919Z,18.17
2022-10-21T05:51:31.899Z,20.30
2022-10-21T05:54:17.981Z,18.58
2022-10-21T05:57:04.186Z,16.80
2022-10-21T05:59:50.368Z,21.65
2022-10-21T06:02:36.851Z,16.48
2022-10-21T06:05:22.996Z,15.32
2022-10-21T06:08:08.930Z,18.25
2022-10-21T06:11:08.878Z,16.75
2022-10-21T06:13:55.014Z,14.40
2022-10-21T06:16:41.142Z,14.23
2022-10-21T06:19:27.008Z,15.13
2022-10-21T06:22:12.981Z,13.32
2022-10-21T06:24:58.949Z,13.65
2022-10-21T06:27:44.808Z,18.08
2022-10-21T06:30:30.847Z,20.10
2022-10-21T06:33:16.748Z,18.63
2022-10-21T06:36:03.013Z,20.80
2022-10-21T06:38:49.133Z,21.35
2022-10-21T06:41:35.239Z,16.60
2022-10-21T06:44:21.064Z,19.23
2022-10-21T06:47:07.233Z,13.05
2022-10-21T06:49:53.608Z,15.32
2022-10-21T06:52:40.955Z,17.40
2022-10-21T06:55:26.907Z,19.10
2022-10-21T06:58:12.773Z,12.82
2022-10-21T07:00:59.168Z,16.63
2022-10-21T07:03:48.267Z,17.15
2022-10-21T07:09:20.450Z,15.80
2022-10-21T07:12:06.533Z,20.70
2022-10-21T07:14:52.528Z,22.63
2022-10-21T07:17:38.636Z,25.17
2022-10-21T07:20:24.930Z,24.92
2022-10-21T07:23:10.807Z,20.75
2022-10-21T07:25:56.957Z,32.05
2022-10-21T07:28:47.033Z,57.60
2022-10-21T07:31:36.311Z,72.32
2022-10-21T07:34:22.661Z,74.00
2022-10-21T07:37:08.470Z,74.95
2022-10-21T07:39:54.846Z,86.80
2022-10-21T07:42:40.855Z,77.65
2022-10-21T07:45:26.728Z,87.25
2022-10-21T07:48:12.599Z,68.32
2022-10-21T07:51:10.388Z,71.60
2022-10-21T07:53:57.338Z,74.90
2022-10-21T07:56:46.391Z,79.85
2022-10-21T07:59:32.494Z,72.82
2022-10-21T08:02:18.310Z,51.25
2022-10-21T08:05:05.359Z,51.00
2022-10-21T08:07:51.200Z,56.10
2022-10-21T08:10:41.114Z,45.00
2022-10-21T08:13:27.246Z,41.35
2022-10-21T08:16:13.293Z,26.63
2022-10-21T08:19:03.435Z,32.22
2022-10-21T08:21:49.695Z,30.98
2022-10-21T08:24:39.920Z,32.10
2022-10-21T08:27:28.894Z,33.15
2022-10-21T08:30:15.688Z,33.85
2022-10-21T08:33:01.450Z,31.05
2022-10-21T08:35:47.465Z,31.10
2022-10-21T08:38:33.457Z,30.65
2022-10-21T08:41:31.585Z,36.50
2022-10-21T08:44:35.293Z,31.05
2022-10-21T08:47:32.038Z,43.70
2022-10-21T08:50:40.663Z,53.05
2022-10-21T08:53:58.374Z,60.40
2022-10-21T08:56:44.454Z,45.83
2022-10-21T08:59:30.732Z,41.42
2022-10-21T09:02:24.563Z,31.95
2022-10-21T09:05:24.329Z,31.77
2022-10-21T09:08:28.447Z,33.38
2022-10-21T09:11:38.673Z,24.63
2022-10-21T09:14:50.978Z,28.33
2022-10-21T09:17:53.018Z,36.87
2022-10-21T09:20:45.759Z,32.00
2022-10-21T09:23:46.644Z,30.48
2022-10-21T09:26:43.543Z,30.35
2022-10-21T09:29:35.654Z,31.98
2022-10-21T09:35:39.078Z,32.40
2022-10-21T09:38:39.156Z,26.58
2022-10-21T09:41:30.459Z,30.00
2022-10-21T09:44:18.384Z,19.35
2022-10-21T09:47:17.917Z,28.27
2022-10-21T09:50:07.691Z,58.20
2022-10-21T09:53:18.779Z,36.42
2022-10-21T09:56:26.547Z,28.63
2022-10-21T09:59:14.953Z,21.60
2022-10-21T10:02:08.204Z,26.83
2022-10-21T10:04:54.257Z,22.70
2022-10-21T10:07:40.211Z,27.15
2022-10-21T10:10:33.730Z,18.73
2022-10-21T10:13:23.473Z,28.00
2022-10-21T10:16:30.518Z,22.55
2022-10-21T10:19:22.250Z,24.88
2022-10-21T10:22:14.851Z,22.30
2022-10-21T10:25:18.637Z,16.80
2022-10-21T10:28:10.919Z,21.17
2022-10-21T10:30:57.366Z,19.83
2022-10-21T10:33:56.600Z,19.45
2022-10-21T10:36:44.739Z,15.63
2022-10-21T10:39:33.212Z,21.08
2022-10-21T10:42:25.563Z,23.67
2022-10-21T10:45:22.627Z,24.23
2022-10-21T10:48:22.467Z,24.15
2022-10-21T10:51:29.807Z,18.33
2022-10-21T10:54:27.006Z,16.70
2022-10-21T10:57:20.586Z,14.82
2022-10-21T11:00:17.465Z,23.40
2022-10-21T11:03:08.000Z,16.75
2022-10-21T11:05:59.228Z,18.17
2022-10-21T11:08:51.798Z,14.45
2022-10-21T11:11:41.248Z,20.42
2022-10-21T11:14:27.060Z,16.10
2022-10-21T11:17:13.765Z,16.88
2022-10-21T11:20:27.179Z,14.20
2022-10-21T11:23:13.222Z,21.20
2022-10-21T11:26:06.497Z,16.63
2022-10-21T11:29:03.513Z,20.50
2022-10-21T11:32:09.977Z,21.55
2022-10-21T11:35:30.513Z,18.13
2022-10-21T11:38:22.712Z,20.08
2022-10-21T11:41:11.640Z,19.10
2022-10-21T11:44:17.164Z,18.05
2022-10-21T11:47:12.043Z,20.80
2022-10-21T11:50:28.063Z,20.13
2022-10-21T11:53:36.433Z,22.40
2022-10-21T11:56:43.127Z,15.63
2022-10-21T11:59:35.329Z,17.52
2022-10-21T12:02:26.771Z,14.07
2022-10-21T12:05:22.669Z,19.70
2022-10-21T12:08:17.084Z,21.88
2022-10-21T12:11:15.796Z,26.45
2022-10-21T12:14:46.662Z,21.23
2022-10-21T12:17:34.083Z,21.27
2022-10-21T12:20:24.093Z,19.40
2022-10-21T12:23:12.228Z,19.42
2022-10-21T12:26:18.334Z,23.13
2022-10-21T12:29:37.559Z,21.23
2022-10-21T12:32:32.033Z,31.27
2022-10-21T12:35:27.845Z,23.98
2022-10-21T12:38:40.404Z,21.38
2022-10-21T12:41:36.265Z,22.58
2022-10-21T12:44:27.163Z,24.02
2022-10-21T12:47:32.540Z,19.75
2022-10-21T12:50:29.033Z,24.58
2022-10-21T12:53:20.814Z,21.17
2022-10-21T12:56:07.971Z,21.40
2022-10-21T12:59:04.497Z,20.88
2022-10-21T13:02:05.821Z,34.60
2022-10-21T13:04:53.941Z,21.52
2022-10-21T13:07:40.338Z,26.30
2022-10-21T13:10:26.785Z,20.33
2022-10-21T13:13:28.800Z,22.05
2022-10-21T13:16:21.196Z,22.23
2022-10-21T13:19:16.571Z,15.82
2022-10-21T13:22:10.529Z,20.88
2022-10-21T13:24:56.340Z,22.42
2022-10-21T13:28:07.949Z,17.75
2022-10-21T13:30:59.146Z,16.80
2022-10-21T13:33:53.121Z,17.42
2022-10-21T13:36:42.847Z,18.98
2022-10-21T13:39:31.922Z,22.83
2022-10-21T13:42:20.685Z,20.42
2022-10-21T13:45:20.015Z,24.25
2022-10-21T13:48:07.153Z,21.58
2022-10-21T13:50:53.516Z,18.27
2022-10-21T13:53:45.600Z,21.52
2022-10-21T13:56:33.880Z,18.42
2022-10-21T13:59:24.582Z,22.45
2022-10-21T14:02:24.750Z,24.65
2022-10-21T14:05:46.710Z,18.90
2022-10-21T14:08:38.212Z,19.90
2022-10-21T14:11:27.603Z,23.33
2022-10-21T14:14:16.269Z,23.20
2022-10-21T14:17:05.722Z,26.52
2022-10-21T14:19:54.141Z,33.47
2022-10-21T14:22:40.686Z,29.00
2022-10-21T14:25:27.458Z,30.92
2022-10-21T14:28:14.148Z,28.30
2022-10-21T14:31:01.667Z,32.25
2022-10-21T14:33:49.748Z,33.03
2022-10-21T14:37:11.819Z,26.55
2022-10-21T14:40:10.592Z,32.50
2022-10-21T14:42:56.524Z,41.88
2022-10-21T14:45:53.382Z,30.80
2022-10-21T14:48:45.600Z,29.40
2022-10-21T14:51:36.779Z,32.65
2022-10-21T14:54:43.621Z,51.47
2022-10-21T14:57:50.377Z,41.33
2022-10-21T15:00:41.718Z,35.92
2022-10-21T15:04:03.455Z,41.95
2022-10-21T15:07:00.532Z,28.20
2022-10-21T15:09:56.828Z,36.35
2022-10-21T15:12:43.971Z,52.78
2022-10-21T15:15:54.188Z,31.63
2022-10-21T15:18:52.698Z,44.25
2022-10-21T15:22:00.043Z,39.70
2022-10-21T15:24:46.344Z,44.13
2022-10-21T15:27:37.010Z,39.80
2022-10-21T15:30:23.465Z,45.05
2022-10-21T15:33:12.125Z,40.03
2022-10-21T15:36:06.150Z,41.17
2022-10-21T15:38:52.337Z,51.10
2022-10-21T15:41:38.474Z,45.15
2022-10-21T15:44:34.884Z,54.42
2022-10-21T15:47:21.050Z,57.80
2022-10-21T15:50:14.864Z,55.20
2022-10-21T15:53:00.968Z,49.80
2022-10-21T15:55:46.799Z,50.67
2022-10-21T15:58:32.680Z,57.70
2022-10-21T16:01:18.663Z,60.25
2022-10-21T16:04:04.665Z,61.08
2022-10-21T16:06:51.884Z,58.92
2022-10-21T16:09:37.834Z,54.97
2022-10-21T16:12:23.714Z,46.33
2022-10-21T16:15:10.451Z,40.65
2022-10-21T16:17:57.755Z,37.20
2022-10-21T16:20:43.903Z,42.83
2022-10-21T16:23:31.655Z,43.13
2022-10-21T16:26:26.017Z,53.13
2022-10-21T16:29:21.177Z,57.17
2022-10-21T16:32:09.137Z,44.00
2022-10-21T16:34:55.152Z,64.78
2022-10-21T16:37:42.422Z,48.53
2022-10-21T16:40:32.830Z,56.78
2022-10-21T16:43:18.932Z,47.47
2022-10-21T16:46:04.995Z,39.78
2022-10-21T16:48:51.080Z,25.90
2022-10-21T16:51:38.416Z,30.77
2022-10-21T16:54:24.753Z,28.75
2022-10-21T16:57:10.943Z,41.72
2022-10-21T16:59:56.960Z,35.83
2022-10-21T17:02:44.372Z,32.50
2022-10-21T17:05:30.602Z,43.30
2022-10-21T17:08:16.948Z,40.13
2022-10-21T17:11:06.220Z,51.53
2022-10-21T17:13:52.147Z,49.70
2022-10-21T17:16:40.116Z,54.05
2022-10-21T17:19:26.245Z,87.30
2022-10-21T17:22:19.342Z,81.60
2022-10-21T17:25:06.138Z,65.85
2022-10-21T17:27:52.481Z,89.38
2022-10-21T17:30:38.659Z,68.18
2022-10-21T17:33:24.778Z,68.50
2022-10-21T17:36:11.160Z,78.13
2022-10-21T17:38:57.395Z,53.20
2022-10-21T17:41:43.335Z,55.58
2022-10-21T17:44:29.388Z,44.63
2022-10-21T17:47:15.873Z,38.42
2022-10-21T17:50:01.993Z,43.00
2022-10-21T17:52:48.101Z,42.20
2022-10-21T17:55:33.906Z,47.05
2022-10-21T17:58:20.178Z,45.40
2022-10-21T18:01:08.614Z,37.22
2022-10-21T18:03:58.103Z,39.85
2022-10-21T18:06:44.339Z,39.75
2022-10-21T18:09:30.608Z,43.33
2022-10-21T18:12:17.629Z,37.80
2022-10-21T18:15:04.158Z,48.72
2022-10-21T18:17:49.985Z,35.00
2022-10-21T18:20:36.834Z,40.17
2022-10-21T18:23:23.419Z,46.38
2022-10-21T18:26:14.889Z,54.03
2022-10-21T18:29:03.059Z,42.60
2022-10-21T18:31:49.613Z,45.40
2022-10-21T18:34:35.861Z,36.72
2022-10-21T18:37:21.798Z,43.88
2022-10-21T18:40:08.694Z,32.97
2022-10-21T18:42:54.767Z,28.77
2022-10-21T18:45:45.562Z,34.60
2022-10-21T18:48:32.161Z,28.65
2022-10-21T18:51:23.243Z,34.95
2022-10-21T18:54:09.615Z,32.22
2022-10-21T18:56:55.610Z,37.13
2022-10-21T18:59:41.906Z,38.72
2022-10-21T19:02:28.310Z,40.08
2022-10-21T19:05:14.590Z,41.30
2022-10-21T19:08:00.876Z,36.97
2022-10-21T19:10:47.190Z,38.25
2022-10-21T19:13:33.348Z,32.67
2022-10-21T19:16:19.310Z,39.70
2022-10-21T19:19:05.961Z,45.33
2022-10-21T19:21:52.330Z,48.97
2022-10-21T19:24:38.505Z,43.70
2022-10-21T19:27:24.552Z,39.45
2022-10-21T19:30:11.113Z,47.03
2022-10-21T19:33:00.440Z,52.92
2022-10-21T19:35:46.571Z,55.90
2022-10-21T19:38:43.728Z,53.25
2022-10-21T19:41:30.079Z,42.03
2022-10-21T19:44:16.387Z,52.42
2022-10-21T19:47:02.547Z,47.50
2022-10-21T19:49:48.641Z,37.65
2022-10-21T19:52:34.693Z,44.55
2022-10-21T19:55:21.657Z,43.03
2022-10-21T19:58:07.767Z,42.55
2022-10-21T20:01:05.207Z,39.78
2022-10-21T20:03:51.958Z,44.53
2022-10-21T20:06:38.886Z,43.05
2022-10-21T20:09:25.113Z,55.00
2022-10-21T20:12:11.283Z,44.28
2022-10-21T20:14:58.086Z,39.10
2022-10-21T20:17:44.043Z,42.58
2022-10-21T20:20:30.353Z,50.95
2022-10-21T20:23:16.784Z,57.67
2022-10-21T20:26:03.559Z,54.13
2022-10-21T20:28:50.985Z,43.15
2022-10-21T20:31:37.067Z,40.95
2022-10-21T20:34:41.912Z,39.63
2022-10-21T20:37:27.739Z,42.38
2022-10-21T20:40:13.802Z,39.38
2022-10-21T20:42:59.766Z,43.42
2022-10-21T20:45:45.601Z,30.48
2022-10-21T20:48:32.093Z,40.80
2022-10-21T20:51:20.587Z,42.33
2022-10-21T20:54:09.583Z,34.35
2022-10-21T20:56:55.360Z,40.70
2022-10-21T20:59:41.207Z,42.63
2022-10-21T21:02:27.121Z,41.42
2022-10-21T21:05:13.114Z,30.42
2022-10-21T21:07:59.236Z,29.92
2022-10-21T21:10:45.437Z,34.47
2022-10-21T21:13:31.553Z,26.40
2022-10-21T21:16:19.698Z,32.15
2022-10-21T21:19:07.913Z,30.05
2022-10-21T21:21:53.878Z,35.85
2022-10-21T21:24:40.464Z,35.38
2022-10-21T21:27:28.797Z,35.33
2022-10-21T21:30:14.919Z,30.20
2022-10-21T21:33:00.955Z,39.17
2022-10-21T21:35:47.037Z,33.15
2022-10-21T21:38:33.939Z,35.85
2022-10-21T21:41:21.221Z,35.35
2022-10-21T21:44:07.455Z,32.92
2022-10-21T21:46:53.362Z,34.67
2022-10-21T21:49:39.285Z,30.52
2022-10-21T21:52:26.142Z,40.55
2022-10-21T21:55:12.299Z,35.17
2022-10-21T21:57:58.248Z,36.95
2022-10-21T22:00:44.120Z,31.65
2022-10-21T22:03:30.266Z,30.30
2022-10-21T22:06:19.448Z,38.90
2022-10-21T22:09:11.889Z,34.40
2022-10-21T22:11:58.091Z,31.83
2022-10-21T22:14:44.179Z,39.65
2022-10-21T22:17:29.987Z,43.17
2022-10-21T22:20:16.783Z,33.33
2022-10-21T22:23:03.082Z,36.67
2022-10-21T22:25:49.177Z,29.00
2022-10-21T22:28:35.522Z,37.30
2022-10-21T22:31:27.171Z,35.95
2022-10-21T22:34:16.249Z,37.55
2022-10-21T22:37:02.265Z,35.42
2022-10-21T22:39:48.129Z,32.17
2022-10-21T22:42:34.222Z,30.67
2022-10-21T22:45:20.271Z,32.55
2022-10-21T22:48:06.209Z,34.78
2022-10-21T22:50:52.092Z,32.97
2022-10-21T22:53:37.947Z,37.42
2022-10-21T22:56:25.257Z,33.90
2022-10-21T22:59:10.995Z,28.55
2022-10-21T23:01:56.889Z,29.83
2022-10-21T23:04:42.973Z,34.60
2022-10-21T23:07:28.890Z,37.05
2022-10-21T23:10:15.017Z,30.13
2022-10-21T23:13:01.312Z,32.38
2022-10-21T23:15:47.958Z,33.75
2022-10-21T23:18:34.097Z,33.53
2022-10-21T23:21:19.915Z,27.63
2022-10-21T23:24:06.462Z,35.58
2022-10-21T23:26:54.498Z,27.08
2022-10-21T23:29:43.774Z,31.60
2022-10-21T23:32:29.752Z,23.98
2022-10-21T23:35:16.044Z,28.77
2022-10-21T23:38:02.261Z,25.95
2022-10-21T23:40:48.255Z,29.63
2022-10-21T23:43:34.341Z,29.02
2022-10-21T23:46:21.154Z,30.13
2022-10-21T23:49:07.106Z,26.38
2022-10-21T23:51:53.041Z,31.70
2022-10-21T23:54:38.861Z,27.25
2022-10-21T23:57:26.079Z,27.58
